sensor_id;sensor_type;location;lat;lon;timestamp;P1;durP1;ratioP1;P2;durP2;ratioP2
70420;SDS011;57848;51.938;15.520;2023-01-09T00:00:16;33.92;;;12.80;;
70420;SDS011;57848;51.938;15.520;2023-01-09T00:02:43;25.73;;;10.77;;
70420;SDS011;57848;51.938;15.520;2023-01-09T00:05:10;22.33;;;10.05;;
70420;SDS011;57848;51.938;15.520;2023-01-09T00:07:36;24.67;;;10.57;;
70420;SDS011;57848;51.938;15.520;2023-01-09T00:10:02;21.10;;;9.37;;
70420;SDS011;57848;51.938;15.520;2023-01-09T00:12:28;21.63;;;9.52;;
70420;SDS011;57848;51.938;15.520;2023-01-09T00:14:53;23.80;;;9.80;;
70420;SDS011;57848;51.938;15.520;2023-01-09T00:17:19;21.58;;;9.02;;
70420;SDS011;57848;51.938;15.520;2023-01-09T00:19:44;26.00;;;9.77;;
70420;SDS011;57848;51.938;15.520;2023-01-09T00:22:09;21.53;;;9.77;;
70420;SDS011;57848;51.938;15.520;2023-01-09T00:24:35;21.33;;;9.10;;
70420;SDS011;57848;51.938;15.520;2023-01-09T00:27:01;20.23;;;9.93;;
70420;SDS011;57848;51.938;15.520;2023-01-09T00:29:26;21.85;;;9.77;;
70420;SDS011;57848;51.938;15.520;2023-01-09T00:31:52;23.07;;;9.73;;
70420;SDS011;57848;51.938;15.520;2023-01-09T00:34:17;26.37;;;11.87;;
70420;SDS011;57848;51.938;15.520;2023-01-09T00:36:43;27.17;;;11.83;;
70420;SDS011;57848;51.938;15.520;2023-01-09T00:39:08;23.38;;;10.65;;
70420;SDS011;57848;51.938;15.520;2023-01-09T00:41:38;21.83;;;10.50;;
70420;SDS011;57848;51.938;15.520;2023-01-09T00:44:10;24.38;;;10.63;;
70420;SDS011;57848;51.938;15.520;2023-01-09T00:46:47;21.87;;;9.97;;
70420;SDS011;57848;51.938;15.520;2023-01-09T00:49:17;20.77;;;8.98;;
70420;SDS011;57848;51.938;15.520;2023-01-09T00:51:42;23.70;;;10.85;;
70420;SDS011;57848;51.938;15.520;2023-01-09T00:54:09;22.57;;;9.73;;
70420;SDS011;57848;51.938;15.520;2023-01-09T00:56:37;21.45;;;9.75;;
70420;SDS011;57848;51.938;15.520;2023-01-09T00:59:03;22.07;;;10.27;;
70420;SDS011;57848;51.938;15.520;2023-01-09T01:01:29;24.30;;;11.13;;
70420;SDS011;57848;51.938;15.520;2023-01-09T01:03:54;24.03;;;10.07;;
70420;SDS011;57848;51.938;15.520;2023-01-09T01:06:20;31.50;;;11.70;;
70420;SDS011;57848;51.938;15.520;2023-01-09T01:09:04;26.50;;;11.50;;
70420;SDS011;57848;51.938;15.520;2023-01-09T01:11:32;27.00;;;11.43;;
70420;SDS011;57848;51.938;15.520;2023-01-09T01:13:58;36.65;;;13.65;;
70420;SDS011;57848;51.938;15.520;2023-01-09T01:16:25;30.75;;;12.13;;
70420;SDS011;57848;51.938;15.520;2023-01-09T01:18:50;30.97;;;12.33;;
70420;SDS011;57848;51.938;15.520;2023-01-09T01:21:16;28.00;;;11.97;;
70420;SDS011;57848;51.938;15.520;2023-01-09T01:23:42;27.45;;;11.70;;
70420;SDS011;57848;51.938;15.520;2023-01-09T01:26:09;28.38;;;12.20;;
70420;SDS011;57848;51.938;15.520;2023-01-09T01:28:37;32.37;;;12.53;;
70420;SDS011;57848;51.938;15.520;2023-01-09T01:31:03;31.15;;;12.23;;
70420;SDS011;57848;51.938;15.520;2023-01-09T01:33:29;27.35;;;11.57;;
70420;SDS011;57848;51.938;15.520;2023-01-09T01:36:13;23.67;;;11.32;;
70420;SDS011;57848;51.938;15.520;2023-01-09T01:38:41;31.07;;;11.57;;
70420;SDS011;57848;51.938;15.520;2023-01-09T01:41:07;25.38;;;11.80;;
70420;SDS011;57848;51.938;15.520;2023-01-09T01:43:49;30.45;;;13.15;;
70420;SDS011;57848;51.938;15.520;2023-01-09T01:46:19;30.30;;;13.55;;
70420;SDS011;57848;51.938;15.520;2023-01-09T01:48:44;29.23;;;13.37;;
70420;SDS011;57848;51.938;15.520;2023-01-09T01:51:12;28.00;;;12.25;;
70420;SDS011;57848;51.938;15.520;2023-01-09T01:53:41;26.65;;;12.60;;
70420;SDS011;57848;51.938;15.520;2023-01-09T01:58:56;25.13;;;11.77;;
70420;SDS011;57848;51.938;15.520;2023-01-09T02:01:33;26.77;;;10.93;;
70420;SDS011;57848;51.938;15.520;2023-01-09T02:04:02;28.75;;;10.68;;
70420;SDS011;57848;51.938;15.520;2023-01-09T02:06:28;23.70;;;11.53;;
70420;SDS011;57848;51.938;15.520;2023-01-09T02:08:54;24.92;;;11.77;;
70420;SDS011;57848;51.938;15.520;2023-01-09T02:11:21;25.77;;;12.02;;
70420;SDS011;57848;51.938;15.520;2023-01-09T02:13:47;27.92;;;12.35;;
70420;SDS011;57848;51.938;15.520;2023-01-09T02:18:52;27.83;;;12.27;;
70420;SDS011;57848;51.938;15.520;2023-01-09T02:21:42;29.33;;;13.18;;
70420;SDS011;57848;51.938;15.520;2023-01-09T02:28:17;30.13;;;13.57;;
70420;SDS011;57848;51.938;15.520;2023-01-09T02:33:11;30.65;;;14.52;;
70420;SDS011;57848;51.938;15.520;2023-01-09T02:36:08;30.05;;;14.20;;
70420;SDS011;57848;51.938;15.520;2023-01-09T02:41:29;31.63;;;14.70;;
70420;SDS011;57848;51.938;15.520;2023-01-09T02:46:58;38.70;;;16.65;;
70420;SDS011;57848;51.938;15.520;2023-01-09T02:49:25;29.95;;;14.18;;
70420;SDS011;57848;51.938;15.520;2023-01-09T02:51:52;32.05;;;14.10;;
70420;SDS011;57848;51.938;15.520;2023-01-09T02:56:57;32.13;;;14.57;;
70420;SDS011;57848;51.938;15.520;2023-01-09T03:00:18;33.53;;;15.43;;
70420;SDS011;57848;51.938;15.520;2023-01-09T03:07:48;36.88;;;16.00;;
70420;SDS011;57848;51.938;15.520;2023-01-09T03:13:20;36.10;;;15.82;;
70420;SDS011;57848;51.938;15.520;2023-01-09T03:15:49;41.13;;;15.15;;
70420;SDS011;57848;51.938;15.520;2023-01-09T03:18:16;31.75;;;15.07;;
70420;SDS011;57848;51.938;15.520;2023-01-09T03:20:45;34.33;;;15.05;;
70420;SDS011;57848;51.938;15.520;2023-01-09T03:23:12;35.23;;;14.83;;
70420;SDS011;57848;51.938;15.520;2023-01-09T03:25:39;31.83;;;15.48;;
70420;SDS011;57848;51.938;15.520;2023-01-09T03:28:05;32.53;;;14.60;;
70420;SDS011;57848;51.938;15.520;2023-01-09T03:30:33;33.08;;;12.80;;
70420;SDS011;57848;51.938;15.520;2023-01-09T03:32:59;28.80;;;13.25;;
70420;SDS011;57848;51.938;15.520;2023-01-09T03:35:25;28.73;;;12.80;;
70420;SDS011;57848;51.938;15.520;2023-01-09T03:37:50;28.88;;;12.50;;
70420;SDS011;57848;51.938;15.520;2023-01-09T03:40:16;29.47;;;11.77;;
70420;SDS011;57848;51.938;15.520;2023-01-09T03:42:42;27.13;;;11.75;;
70420;SDS011;57848;51.938;15.520;2023-01-09T03:45:08;26.90;;;11.60;;
70420;SDS011;57848;51.938;15.520;2023-01-09T03:47:34;25.83;;;11.93;;
70420;SDS011;57848;51.938;15.520;2023-01-09T03:49:59;28.03;;;12.00;;
70420;SDS011;57848;51.938;15.520;2023-01-09T03:52:24;27.47;;;11.93;;
70420;SDS011;57848;51.938;15.520;2023-01-09T03:54:50;28.33;;;12.37;;
70420;SDS011;57848;51.938;15.520;2023-01-09T03:57:15;26.63;;;11.60;;
70420;SDS011;57848;51.938;15.520;2023-01-09T03:59:42;27.15;;;11.57;;
70420;SDS011;57848;51.938;15.520;2023-01-09T04:02:08;25.35;;;12.10;;
70420;SDS011;57848;51.938;15.520;2023-01-09T04:04:33;26.13;;;11.27;;
70420;SDS011;57848;51.938;15.520;2023-01-09T04:06:58;26.97;;;11.37;;
70420;SDS011;57848;51.938;15.520;2023-01-09T04:09:24;27.63;;;12.10;;
70420;SDS011;57848;51.938;15.520;2023-01-09T04:11:49;27.57;;;12.20;;
70420;SDS011;57848;51.938;15.520;2023-01-09T04:14:14;26.57;;;11.33;;
70420;SDS011;57848;51.938;15.520;2023-01-09T04:16:40;26.92;;;11.63;;
70420;SDS011;57848;51.938;15.520;2023-01-09T04:19:06;29.00;;;11.40;;
70420;SDS011;57848;51.938;15.520;2023-01-09T04:21:32;25.95;;;11.60;;
70420;SDS011;57848;51.938;15.520;2023-01-09T04:23:58;28.57;;;12.00;;
70420;SDS011;57848;51.938;15.520;2023-01-09T04:26:23;26.93;;;12.27;;
70420;SDS011;57848;51.938;15.520;2023-01-09T04:28:48;26.80;;;11.80;;
70420;SDS011;57848;51.938;15.520;2023-01-09T04:31:14;25.53;;;11.17;;
70420;SDS011;57848;51.938;15.520;2023-01-09T04:33:39;25.47;;;11.43;;
70420;SDS011;57848;51.938;15.520;2023-01-09T04:36:05;29.55;;;12.73;;
70420;SDS011;57848;51.938;15.520;2023-01-09T04:38:31;25.60;;;11.37;;
70420;SDS011;57848;51.938;15.520;2023-01-09T04:40:56;30.17;;;12.65;;
70420;SDS011;57848;51.938;15.520;2023-01-09T04:43:22;24.80;;;11.80;;
70420;SDS011;57848;51.938;15.520;2023-01-09T04:45:47;29.10;;;12.17;;
70420;SDS011;57848;51.938;15.520;2023-01-09T04:48:13;29.27;;;12.83;;
70420;SDS011;57848;51.938;15.520;2023-01-09T04:50:38;27.73;;;12.70;;
70420;SDS011;57848;51.938;15.520;2023-01-09T04:53:04;29.13;;;12.17;;
70420;SDS011;57848;51.938;15.520;2023-01-09T04:55:30;29.42;;;13.07;;
70420;SDS011;57848;51.938;15.520;2023-01-09T04:57:56;25.43;;;12.10;;
70420;SDS011;57848;51.938;15.520;2023-01-09T05:00:21;28.70;;;12.32;;
70420;SDS011;57848;51.938;15.520;2023-01-09T05:02:47;25.70;;;12.07;;
70420;SDS011;57848;51.938;15.520;2023-01-09T05:05:12;24.83;;;11.60;;
70420;SDS011;57848;51.938;15.520;2023-01-09T05:07:38;25.97;;;12.83;;
70420;SDS011;57848;51.938;15.520;2023-01-09T05:10:03;27.27;;;12.40;;
70420;SDS011;57848;51.938;15.520;2023-01-09T05:12:30;30.27;;;12.80;;
70420;SDS011;57848;51.938;15.520;2023-01-09T05:14:55;28.87;;;12.47;;
70420;SDS011;57848;51.938;15.520;2023-01-09T05:17:22;30.58;;;14.35;;
70420;SDS011;57848;51.938;15.520;2023-01-09T05:19:48;27.75;;;12.82;;
70420;SDS011;57848;51.938;15.520;2023-01-09T05:22:13;29.83;;;14.13;;
70420;SDS011;57848;51.938;15.520;2023-01-09T05:24:39;33.92;;;14.40;;
70420;SDS011;57848;51.938;15.520;2023-01-09T05:27:04;33.13;;;14.17;;
70420;SDS011;57848;51.938;15.520;2023-01-09T05:29:30;30.73;;;13.93;;
70420;SDS011;57848;51.938;15.520;2023-01-09T05:31:55;33.27;;;15.17;;
70420;SDS011;57848;51.938;15.520;2023-01-09T05:34:21;33.45;;;14.05;;
70420;SDS011;57848;51.938;15.520;2023-01-09T05:36:46;29.80;;;14.07;;
70420;SDS011;57848;51.938;15.520;2023-01-09T05:39:12;33.40;;;14.13;;
70420;SDS011;57848;51.938;15.520;2023-01-09T05:41:37;32.40;;;14.20;;
70420;SDS011;57848;51.938;15.520;2023-01-09T05:44:02;31.58;;;13.82;;
70420;SDS011;57848;51.938;15.520;2023-01-09T05:46:29;35.13;;;13.70;;
70420;SDS011;57848;51.938;15.520;2023-01-09T05:48:55;30.60;;;13.57;;
70420;SDS011;57848;51.938;15.520;2023-01-09T05:51:20;36.13;;;15.17;;
70420;SDS011;57848;51.938;15.520;2023-01-09T05:53:46;38.90;;;15.35;;
70420;SDS011;57848;51.938;15.520;2023-01-09T05:56:11;37.23;;;15.27;;
70420;SDS011;57848;51.938;15.520;2023-01-09T05:58:36;33.97;;;14.67;;
70420;SDS011;57848;51.938;15.520;2023-01-09T06:01:02;35.50;;;15.17;;
70420;SDS011;57848;51.938;15.520;2023-01-09T06:03:27;35.67;;;15.50;;
70420;SDS011;57848;51.938;15.520;2023-01-09T06:05:52;33.70;;;14.43;;
70420;SDS011;57848;51.938;15.520;2023-01-09T06:08:18;33.53;;;14.93;;
70420;SDS011;57848;51.938;15.520;2023-01-09T06:10:44;33.50;;;15.60;;
70420;SDS011;57848;51.938;15.520;2023-01-09T06:13:10;33.03;;;14.38;;
70420;SDS011;57848;51.938;15.520;2023-01-09T06:15:35;37.30;;;16.83;;
70420;SDS011;57848;51.938;15.520;2023-01-09T06:18:00;36.33;;;15.97;;
70420;SDS011;57848;51.938;15.520;2023-01-09T06:20:26;34.00;;;15.50;;
70420;SDS011;57848;51.938;15.520;2023-01-09T06:22:51;36.20;;;13.97;;
70420;SDS011;57848;51.938;15.520;2023-01-09T06:25:17;39.23;;;15.70;;
70420;SDS011;57848;51.938;15.520;2023-01-09T06:27:43;34.55;;;14.57;;
70420;SDS011;57848;51.938;15.520;2023-01-09T06:30:08;40.37;;;15.13;;
70420;SDS011;57848;51.938;15.520;2023-01-09T06:32:34;37.72;;;15.55;;
70420;SDS011;57848;51.938;15.520;2023-01-09T06:35:00;32.87;;;15.40;;
70420;SDS011;57848;51.938;15.520;2023-01-09T06:37:25;36.00;;;14.67;;
70420;SDS011;57848;51.938;15.520;2023-01-09T06:39:50;34.43;;;15.20;;
70420;SDS011;57848;51.938;15.520;2023-01-09T06:42:18;35.40;;;15.30;;
70420;SDS011;57848;51.938;15.520;2023-01-09T06:44:43;36.70;;;15.85;;
70420;SDS011;57848;51.938;15.520;2023-01-09T06:47:09;36.23;;;14.60;;
70420;SDS011;57848;51.938;15.520;2023-01-09T06:49:34;40.73;;;15.80;;
70420;SDS011;57848;51.938;15.520;2023-01-09T06:51:59;38.20;;;15.43;;
70420;SDS011;57848;51.938;15.520;2023-01-09T06:54:29;38.35;;;16.98;;
70420;SDS011;57848;51.938;15.520;2023-01-09T06:56:55;38.28;;;16.23;;
70420;SDS011;57848;51.938;15.520;2023-01-09T06:59:20;42.03;;;16.30;;
70420;SDS011;57848;51.938;15.520;2023-01-09T07:01:45;41.70;;;15.87;;
70420;SDS011;57848;51.938;15.520;2023-01-09T07:04:11;35.10;;;15.17;;
70420;SDS011;57848;51.938;15.520;2023-01-09T07:06:36;38.43;;;16.07;;
70420;SDS011;57848;51.938;15.520;2023-01-09T07:09:02;39.88;;;15.75;;
70420;SDS011;57848;51.938;15.520;2023-01-09T07:11:30;32.05;;;14.02;;
70420;SDS011;57848;51.938;15.520;2023-01-09T07:13:55;36.00;;;16.97;;
70420;SDS011;57848;51.938;15.520;2023-01-09T07:16:21;34.35;;;16.20;;
70420;SDS011;57848;51.938;15.520;2023-01-09T07:18:46;32.73;;;14.90;;
70420;SDS011;57848;51.938;15.520;2023-01-09T07:21:12;36.17;;;16.23;;
70420;SDS011;57848;51.938;15.520;2023-01-09T07:23:37;37.60;;;16.27;;
70420;SDS011;57848;51.938;15.520;2023-01-09T07:26:03;37.10;;;15.80;;
70420;SDS011;57848;51.938;15.520;2023-01-09T07:28:28;39.83;;;16.10;;
70420;SDS011;57848;51.938;15.520;2023-01-09T07:30:54;34.13;;;14.03;;
70420;SDS011;57848;51.938;15.520;2023-01-09T07:33:19;33.10;;;13.98;;
70420;SDS011;57848;51.938;15.520;2023-01-09T07:35:45;33.73;;;14.20;;
70420;SDS011;57848;51.938;15.520;2023-01-09T07:38:10;30.90;;;13.07;;
70420;SDS011;57848;51.938;15.520;2023-01-09T07:40:36;32.45;;;13.85;;
70420;SDS011;57848;51.938;15.520;2023-01-09T07:43:02;28.73;;;13.50;;
70420;SDS011;57848;51.938;15.520;2023-01-09T07:45:27;32.53;;;14.10;;
70420;SDS011;57848;51.938;15.520;2023-01-09T07:47:53;33.40;;;14.33;;
70420;SDS011;57848;51.938;15.520;2023-01-09T07:50:18;38.23;;;15.03;;
70420;SDS011;57848;51.938;15.520;2023-01-09T07:52:47;36.77;;;15.23;;
70420;SDS011;57848;51.938;15.520;2023-01-09T07:55:12;33.63;;;14.43;;
70420;SDS011;57848;51.938;15.520;2023-01-09T07:57:38;38.90;;;14.55;;
70420;SDS011;57848;51.938;15.520;2023-01-09T08:00:04;32.07;;;13.97;;
70420;SDS011;57848;51.938;15.520;2023-01-09T08:02:36;32.38;;;14.13;;
70420;SDS011;57848;51.938;15.520;2023-01-09T08:05:02;31.07;;;13.90;;
70420;SDS011;57848;51.938;15.520;2023-01-09T08:07:27;35.35;;;14.05;;
70420;SDS011;57848;51.938;15.520;2023-01-09T08:09:54;37.40;;;14.30;;
70420;SDS011;57848;51.938;15.520;2023-01-09T08:12:19;33.10;;;14.20;;
70420;SDS011;57848;51.938;15.520;2023-01-09T08:14:44;32.57;;;14.40;;
70420;SDS011;57848;51.938;15.520;2023-01-09T08:17:10;31.37;;;13.77;;
70420;SDS011;57848;51.938;15.520;2023-01-09T08:19:35;30.20;;;13.43;;
70420;SDS011;57848;51.938;15.520;2023-01-09T08:22:01;32.40;;;14.40;;
70420;SDS011;57848;51.938;15.520;2023-01-09T08:24:27;31.58;;;14.13;;
70420;SDS011;57848;51.938;15.520;2023-01-09T08:26:54;29.53;;;14.13;;
70420;SDS011;57848;51.938;15.520;2023-01-09T08:29:19;35.42;;;13.77;;
70420;SDS011;57848;51.938;15.520;2023-01-09T08:31:45;33.03;;;14.00;;
70420;SDS011;57848;51.938;15.520;2023-01-09T08:34:10;29.83;;;13.93;;
70420;SDS011;57848;51.938;15.520;2023-01-09T08:36:36;35.40;;;15.03;;
70420;SDS011;57848;51.938;15.520;2023-01-09T08:39:01;33.95;;;13.60;;
70420;SDS011;57848;51.938;15.520;2023-01-09T08:41:26;32.67;;;14.63;;
70420;SDS011;57848;51.938;15.520;2023-01-09T08:44:10;32.08;;;14.63;;
70420;SDS011;57848;51.938;15.520;2023-01-09T08:46:54;37.15;;;14.35;;
70420;SDS011;57848;51.938;15.520;2023-01-09T08:49:33;34.90;;;14.90;;
70420;SDS011;57848;51.938;15.520;2023-01-09T08:51:59;35.72;;;14.38;;
70420;SDS011;57848;51.938;15.520;2023-01-09T08:54:25;32.92;;;15.00;;
70420;SDS011;57848;51.938;15.520;2023-01-09T08:56:50;32.47;;;14.83;;
70420;SDS011;57848;51.938;15.520;2023-01-09T08:59:16;31.30;;;13.63;;
70420;SDS011;57848;51.938;15.520;2023-01-09T09:01:41;31.10;;;13.23;;
70420;SDS011;57848;51.938;15.520;2023-01-09T09:04:07;29.55;;;13.00;;
70420;SDS011;57848;51.938;15.520;2023-01-09T09:06:33;34.97;;;13.63;;
70420;SDS011;57848;51.938;15.520;2023-01-09T09:08:58;30.97;;;13.53;;
70420;SDS011;57848;51.938;15.520;2023-01-09T09:11:31;30.58;;;12.98;;
70420;SDS011;57848;51.938;15.520;2023-01-09T09:13:57;32.35;;;14.43;;
70420;SDS011;57848;51.938;15.520;2023-01-09T09:16:23;31.93;;;13.70;;
70420;SDS011;57848;51.938;15.520;2023-01-09T09:18:49;33.53;;;15.63;;
70420;SDS011;57848;51.938;15.520;2023-01-09T09:21:15;34.95;;;15.73;;
70420;SDS011;57848;51.938;15.520;2023-01-09T09:23:40;38.00;;;15.43;;
70420;SDS011;57848;51.938;15.520;2023-01-09T09:26:06;35.33;;;14.73;;
70420;SDS011;57848;51.938;15.520;2023-01-09T09:28:31;34.50;;;15.85;;
70420;SDS011;57848;51.938;15.520;2023-01-09T09:30:57;32.23;;;15.57;;
70420;SDS011;57848;51.938;15.520;2023-01-09T09:33:22;35.47;;;15.90;;
70420;SDS011;57848;51.938;15.520;2023-01-09T09:35:47;37.80;;;16.63;;
70420;SDS011;57848;51.938;15.520;2023-01-09T09:38:13;39.17;;;16.63;;
70420;SDS011;57848;51.938;15.520;2023-01-09T09:48:56;31.33;;;14.68;;
70420;SDS011;57848;51.938;15.520;2023-01-09T09:54:40;37.05;;;16.98;;
70420;SDS011;57848;51.938;15.520;2023-01-09T09:57:15;39.33;;;16.77;;
70420;SDS011;57848;51.938;15.520;2023-01-09T09:59:44;38.37;;;16.40;;
70420;SDS011;57848;51.938;15.520;2023-01-09T10:04:50;34.65;;;15.27;;
70420;SDS011;57848;51.938;15.520;2023-01-09T10:07:41;39.55;;;16.25;;
70420;SDS011;57848;51.938;15.520;2023-01-09T10:10:27;37.00;;;15.82;;
70420;SDS011;57848;51.938;15.520;2023-01-09T10:12:59;28.10;;;12.53;;
70420;SDS011;57848;51.938;15.520;2023-01-09T10:16:15;31.25;;;14.15;;
70420;SDS011;57848;51.938;15.520;2023-01-09T10:24:32;35.47;;;14.63;;
70420;SDS011;57848;51.938;15.520;2023-01-09T10:27:01;31.50;;;14.93;;
70420;SDS011;57848;51.938;15.520;2023-01-09T10:37:53;36.60;;;15.43;;
70420;SDS011;57848;51.938;15.520;2023-01-09T10:40:22;37.97;;;16.13;;
70420;SDS011;57848;51.938;15.520;2023-01-09T10:42:51;33.00;;;14.27;;
70420;SDS011;57848;51.938;15.520;2023-01-09T10:45:35;35.10;;;15.98;;
70420;SDS011;57848;51.938;15.520;2023-01-09T10:48:10;36.30;;;16.73;;
70420;SDS011;57848;51.938;15.520;2023-01-09T10:50:42;35.15;;;14.60;;
70420;SDS011;57848;51.938;15.520;2023-01-09T10:53:15;34.80;;;16.03;;
70420;SDS011;57848;51.938;15.520;2023-01-09T10:55:54;36.08;;;16.65;;
70420;SDS011;57848;51.938;15.520;2023-01-09T10:58:24;33.55;;;15.93;;
70420;SDS011;57848;51.938;15.520;2023-01-09T11:00:49;31.17;;;15.13;;
70420;SDS011;57848;51.938;15.520;2023-01-09T11:03:22;37.03;;;16.25;;
70420;SDS011;57848;51.938;15.520;2023-01-09T11:05:50;33.38;;;14.63;;
70420;SDS011;57848;51.938;15.520;2023-01-09T11:08:21;32.67;;;14.97;;
70420;SDS011;57848;51.938;15.520;2023-01-09T11:10:49;33.38;;;14.88;;
70420;SDS011;57848;51.938;15.520;2023-01-09T11:13:18;33.92;;;15.13;;
70420;SDS011;57848;51.938;15.520;2023-01-09T11:15:44;37.00;;;15.02;;
70420;SDS011;57848;51.938;15.520;2023-01-09T11:18:27;35.47;;;16.23;;
70420;SDS011;57848;51.938;15.520;2023-01-09T11:20:53;37.58;;;17.55;;
70420;SDS011;57848;51.938;15.520;2023-01-09T11:23:22;38.60;;;16.23;;
70420;SDS011;57848;51.938;15.520;2023-01-09T11:25:53;35.38;;;15.82;;
70420;SDS011;57848;51.938;15.520;2023-01-09T11:28:20;34.55;;;16.15;;
70420;SDS011;57848;51.938;15.520;2023-01-09T11:36:22;34.83;;;16.30;;
70420;SDS011;57848;51.938;15.520;2023-01-09T11:38:50;35.83;;;15.43;;
70420;SDS011;57848;51.938;15.520;2023-01-09T11:41:19;31.40;;;14.43;;
70420;SDS011;57848;51.938;15.520;2023-01-09T11:43:47;30.85;;;14.98;;
70420;SDS011;57848;51.938;15.520;2023-01-09T11:46:32;31.77;;;14.98;;
70420;SDS011;57848;51.938;15.520;2023-01-09T11:48:58;30.70;;;14.07;;
70420;SDS011;57848;51.938;15.520;2023-01-09T11:51:29;34.33;;;15.13;;
70420;SDS011;57848;51.938;15.520;2023-01-09T11:56:30;29.52;;;14.35;;
70420;SDS011;57848;51.938;15.520;2023-01-09T11:58:55;30.25;;;14.57;;
70420;SDS011;57848;51.938;15.520;2023-01-09T12:04:25;31.50;;;13.75;;
70420;SDS011;57848;51.938;15.520;2023-01-09T12:07:05;29.38;;;14.63;;
70420;SDS011;57848;51.938;15.520;2023-01-09T12:21:16;35.05;;;16.20;;
70420;SDS011;57848;51.938;15.520;2023-01-09T12:24:00;31.48;;;15.13;;
70420;SDS011;57848;51.938;15.520;2023-01-09T12:26:33;25.17;;;12.98;;
70420;SDS011;57848;51.938;15.520;2023-01-09T12:40:22;20.35;;;9.50;;
70420;SDS011;57848;51.938;15.520;2023-01-09T12:43:11;17.50;;;9.23;;
70420;SDS011;57848;51.938;15.520;2023-01-09T12:46:08;19.08;;;8.70;;
70420;SDS011;57848;51.938;15.520;2023-01-09T12:49:04;20.42;;;10.10;;
70420;SDS011;57848;51.938;15.520;2023-01-09T12:51:43;18.42;;;8.40;;
70420;SDS011;57848;51.938;15.520;2023-01-09T12:57:05;18.50;;;8.13;;
70420;SDS011;57848;51.938;15.520;2023-01-09T12:59:40;18.10;;;8.07;;
70420;SDS011;57848;51.938;15.520;2023-01-09T13:02:15;19.33;;;8.63;;
70420;SDS011;57848;51.938;15.520;2023-01-09T13:04:48;15.68;;;7.72;;
70420;SDS011;57848;51.938;15.520;2023-01-09T13:07:22;17.90;;;8.15;;
70420;SDS011;57848;51.938;15.520;2023-01-09T13:10:37;17.17;;;7.77;;
70420;SDS011;57848;51.938;15.520;2023-01-09T13:12:39;17.02;;;8.38;;
70420;SDS011;57848;51.938;15.520;2023-01-09T13:20:54;19.05;;;8.15;;
70420;SDS011;57848;51.938;15.520;2023-01-09T13:23:23;16.07;;;7.53;;
70420;SDS011;57848;51.938;15.520;2023-01-09T13:26:10;18.48;;;8.18;;
70420;SDS011;57848;51.938;15.520;2023-01-09T13:28:42;17.20;;;7.03;;
70420;SDS011;57848;51.938;15.520;2023-01-09T13:31:35;18.60;;;7.57;;
70420;SDS011;57848;51.938;15.520;2023-01-09T13:34:21;15.75;;;7.47;;
70420;SDS011;57848;51.938;15.520;2023-01-09T13:36:52;16.47;;;7.57;;
70420;SDS011;57848;51.938;15.520;2023-01-09T13:39:29;14.15;;;6.80;;
70420;SDS011;57848;51.938;15.520;2023-01-09T13:42:01;17.67;;;7.10;;
70420;SDS011;57848;51.938;15.520;2023-01-09T13:44:47;14.98;;;7.13;;
70420;SDS011;57848;51.938;15.520;2023-01-09T13:59:48;13.07;;;6.00;;
70420;SDS011;57848;51.938;15.520;2023-01-09T14:04:57;13.90;;;6.47;;
70420;SDS011;57848;51.938;15.520;2023-01-09T14:07:24;13.47;;;5.90;;
70420;SDS011;57848;51.938;15.520;2023-01-09T14:09:53;15.52;;;6.75;;
70420;SDS011;57848;51.938;15.520;2023-01-09T14:12:22;14.80;;;6.85;;
70420;SDS011;57848;51.938;15.520;2023-01-09T14:14:49;12.07;;;5.68;;
70420;SDS011;57848;51.938;15.520;2023-01-09T14:17:31;11.97;;;5.27;;
70420;SDS011;57848;51.938;15.520;2023-01-09T14:20:00;12.88;;;6.00;;
70420;SDS011;57848;51.938;15.520;2023-01-09T14:22:32;11.93;;;5.25;;
70420;SDS011;57848;51.938;15.520;2023-01-09T14:25:00;11.80;;;5.63;;
70420;SDS011;57848;51.938;15.520;2023-01-09T14:32:55;12.18;;;5.07;;
70420;SDS011;57848;51.938;15.520;2023-01-09T14:38:31;13.27;;;6.05;;
70420;SDS011;57848;51.938;15.520;2023-01-09T14:41:23;17.05;;;5.63;;
70420;SDS011;57848;51.938;15.520;2023-01-09T14:49:59;12.68;;;5.63;;
70420;SDS011;57848;51.938;15.520;2023-01-09T14:52:47;16.85;;;5.70;;
70420;SDS011;57848;51.938;15.520;2023-01-09T14:55:26;12.93;;;5.95;;
70420;SDS011;57848;51.938;15.520;2023-01-09T14:58:24;14.10;;;6.33;;
70420;SDS011;57848;51.938;15.520;2023-01-09T15:01:04;15.35;;;5.90;;
70420;SDS011;57848;51.938;15.520;2023-01-09T15:06:03;15.05;;;6.57;;
70420;SDS011;57848;51.938;15.520;2023-01-09T15:08:29;15.35;;;5.82;;
70420;SDS011;57848;51.938;15.520;2023-01-09T15:10:56;12.57;;;6.23;;
70420;SDS011;57848;51.938;15.520;2023-01-09T15:13:26;12.77;;;5.97;;
70420;SDS011;57848;51.938;15.520;2023-01-09T15:15:55;11.23;;;5.30;;
70420;SDS011;57848;51.938;15.520;2023-01-09T15:18:24;13.17;;;5.40;;
70420;SDS011;57848;51.938;15.520;2023-01-09T15:20:53;12.65;;;6.20;;
70420;SDS011;57848;51.938;15.520;2023-01-09T15:23:23;15.48;;;6.15;;
70420;SDS011;57848;51.938;15.520;2023-01-09T15:25:53;16.95;;;6.75;;
70420;SDS011;57848;51.938;15.520;2023-01-09T15:28:21;16.47;;;6.50;;
70420;SDS011;57848;51.938;15.520;2023-01-09T15:30:58;13.90;;;6.40;;
70420;SDS011;57848;51.938;15.520;2023-01-09T15:33:36;12.27;;;5.25;;
70420;SDS011;57848;51.938;15.520;2023-01-09T15:36:05;12.52;;;5.80;;
70420;SDS011;57848;51.938;15.520;2023-01-09T15:38:35;14.77;;;5.77;;
70420;SDS011;57848;51.938;15.520;2023-01-09T15:41:05;13.82;;;6.50;;
70420;SDS011;57848;51.938;15.520;2023-01-09T15:43:35;13.70;;;6.10;;
70420;SDS011;57848;51.938;15.520;2023-01-09T15:46:05;13.23;;;5.70;;
70420;SDS011;57848;51.938;15.520;2023-01-09T15:48:32;11.50;;;5.13;;
70420;SDS011;57848;51.938;15.520;2023-01-09T15:53:30;11.77;;;4.97;;
70420;SDS011;57848;51.938;15.520;2023-01-09T15:58:33;13.15;;;5.05;;
70420;SDS011;57848;51.938;15.520;2023-01-09T16:01:04;10.10;;;4.50;;
70420;SDS011;57848;51.938;15.520;2023-01-09T16:03:34;12.02;;;4.95;;
70420;SDS011;57848;51.938;15.520;2023-01-09T16:06:08;15.02;;;4.93;;
70420;SDS011;57848;51.938;15.520;2023-01-09T16:08:41;11.07;;;4.27;;
70420;SDS011;57848;51.938;15.520;2023-01-09T16:11:20;11.38;;;4.50;;
70420;SDS011;57848;51.938;15.520;2023-01-09T16:13:48;12.35;;;4.88;;
70420;SDS011;57848;51.938;15.520;2023-01-09T16:16:20;10.38;;;4.05;;
70420;SDS011;57848;51.938;15.520;2023-01-09T16:18:53;10.50;;;4.70;;
70420;SDS011;57848;51.938;15.520;2023-01-09T16:23:52;8.65;;;3.30;;
70420;SDS011;57848;51.938;15.520;2023-01-09T16:26:20;7.67;;;3.10;;
70420;SDS011;57848;51.938;15.520;2023-01-09T16:28:48;7.32;;;2.47;;
70420;SDS011;57848;51.938;15.520;2023-01-09T16:31:17;8.50;;;3.13;;
70420;SDS011;57848;51.938;15.520;2023-01-09T16:33:53;9.23;;;3.80;;
70420;SDS011;57848;51.938;15.520;2023-01-09T16:36:21;9.85;;;3.30;;
70420;SDS011;57848;51.938;15.520;2023-01-09T16:38:47;9.17;;;3.50;;
70420;SDS011;57848;51.938;15.520;2023-01-09T16:41:16;9.10;;;3.60;;
70420;SDS011;57848;51.938;15.520;2023-01-09T16:44:01;11.30;;;4.40;;